Time;durP1;ratioP1;P1;durP2;ratioP2;P2;SDS_P1;SDS_P2;PMS_P1;PMS_P2;Temp;Humidity;BMP_temperature;BMP_pressure;BME280_temperature;BME280_humidity;BME280_pressure;Samples;Min_cycle;Max_cycle;Signal;HPM_P1;HPM_P2
2022/04/19 00:01:37;;;;;;;14.23;6.53;;;7.90;99.90;;;;;;5005334;28;20201;-85
2022/04/19 00:04:03;;;;;;;11.33;6.33;;;7.90;99.90;;;;;;5007087;28;20546;-85
2022/04/19 00:06:29;;;;;;;13.50;6.87;;;8.20;99.90;;;;;;5007669;28;20243;-85
2022/04/19 00:08:55;;;;;;;12.27;6.47;;;8.20;99.90;;;;;;5008272;28;21169;-85
2022/04/19 00:11:21;;;;;;;12.97;6.90;;;8.20;99.90;;;;;;5000682;28;20244;-86
2022/04/19 00:13:47;;;;;;;13.73;6.60;;;8.10;99.90;;;;;;5005488;28;20176;-85
2022/04/19 00:16:14;;;;;;;13.83;6.33;;;8.00;99.90;;;;;;5005345;28;20209;-85
2022/04/19 00:18:40;;;;;;;13.53;6.87;;;7.90;99.90;;;;;;5003529;28;20550;-85
2022/04/19 00:21:06;;;;;;;15.13;6.87;;;7.80;99.90;;;;;;5004634;28;20174;-85
2022/04/19 00:23:31;;;;;;;10.93;6.50;;;7.60;99.90;;;;;;5004840;28;20190;-86
2022/04/19 00:25:57;;;;;;;11.47;7.03;;;7.80;99.90;;;;;;5020859;28;20244;-85
2022/04/19 00:28:23;;;;;;;14.60;6.90;;;7.80;99.90;;;;;;5004956;28;20173;-86
2022/04/19 00:30:49;;;;;;;13.83;7.30;;;7.60;99.90;;;;;;5004516;28;20656;-85
2022/04/19 00:33:15;;;;;;;15.77;6.93;;;7.90;99.20;;;;;;5003306;28;20178;-85
2022/04/19 00:35:41;;;;;;;13.50;6.73;;;7.80;99.60;;;;;;5003227;28;20296;-85
2022/04/19 00:38:07;;;;;;;10.37;6.10;;;7.90;99.10;;;;;;5007228;28;20178;-86
2022/04/19 00:40:33;;;;;;;13.90;6.70;;;7.70;99.80;;;;;;5011063;28;20180;-86
2022/04/19 00:43:00;;;;;;;13.80;7.87;;;7.70;99.90;;;;;;5015179;28;20174;-86
2022/04/19 00:45:26;;;;;;;13.67;7.70;;;7.50;99.90;;;;;;5005350;28;20661;-88
2022/04/19 00:47:53;;;;;;;15.20;7.10;;;7.30;99.90;;;;;;5014057;28;20177;-86
2022/04/19 00:50:19;;;;;;;15.13;7.97;;;7.10;99.90;;;;;;5009341;28;20610;-86
2022/04/19 00:52:45;;;;;;;14.73;7.77;;;7.10;99.90;;;;;;4995770;28;20182;-86
2022/04/19 00:55:11;;;;;;;16.63;7.97;;;7.10;99.90;;;;;;5011120;28;20596;-87
2022/04/19 00:57:38;;;;;;;20.37;8.30;;;7.20;99.90;;;;;;5016022;28;20621;-87
2022/04/19 01:00:08;;;;;;;15.33;7.57;;;7.30;99.90;;;;;;5016486;28;20186;-86
2022/04/19 01:02:35;;;;;;;17.30;8.30;;;7.30;99.50;;;;;;5011171;28;20246;-86
2022/04/19 01:05:01;;;;;;;16.23;8.40;;;7.10;99.90;;;;;;4985970;28;20224;-87
2022/04/19 01:07:27;;;;;;;18.10;8.90;;;7.20;99.90;;;;;;5001587;28;20282;-87
2022/04/19 01:09:53;;;;;;;16.43;8.40;;;7.20;99.50;;;;;;5004204;28;20186;-86
2022/04/19 01:15:05;;;;;;;16.63;8.63;;;6.80;99.90;;;;;;5025580;28;20169;-86
2022/04/19 01:17:33;;;;;;;16.47;9.17;;;6.90;99.90;;;;;;5009675;28;20194;-89
2022/04/19 01:20:03;;;;;;;19.93;8.77;;;7.10;99.70;;;;;;5009736;28;20563;-87
2022/04/19 01:22:34;;;;;;;17.80;9.27;;;7.00;99.90;;;;;;5009605;28;20607;-86
2022/04/19 01:24:59;;;;;;;16.97;9.03;;;6.80;99.90;;;;;;5008393;28;20166;-87
2022/04/19 01:27:25;;;;;;;18.03;8.83;;;6.70;99.90;;;;;;5004033;28;20245;-86
2022/04/19 01:29:53;;;;;;;16.80;9.17;;;6.90;99.90;;;;;;5001918;28;20173;-86
2022/04/19 01:32:20;;;;;;;19.37;9.20;;;7.00;99.90;;;;;;5005926;28;20180;-86
2022/04/19 01:34:46;;;;;;;15.63;8.57;;;6.90;99.90;;;;;;5006666;28;20265;-86
2022/04/19 01:37:12;;;;;;;16.73;8.77;;;6.80;99.90;;;;;;5009933;28;20293;-86
2022/04/19 01:42:21;;;;;;;21.13;10.23;;;6.80;99.90;;;;;;5030615;28;20199;-86
2022/04/19 01:44:47;;;;;;;21.10;10.27;;;6.60;99.90;;;;;;5006038;28;20261;-85
2022/04/19 01:47:13;;;;;;;22.67;10.80;;;6.60;99.90;;;;;;5009022;28;20193;-85
2022/04/19 01:49:40;;;;;;;22.93;10.67;;;6.40;99.90;;;;;;5006400;28;20175;-86
2022/04/19 01:52:08;;;;;;;20.17;10.23;;;6.50;99.90;;;;;;5008163;28;20174;-85
2022/04/19 01:54:34;;;;;;;22.77;10.97;;;6.70;99.90;;;;;;5009216;28;20179;-85
2022/04/19 01:56:59;;;;;;;27.20;12.73;;;6.90;99.90;;;;;;5006658;28;20209;-85
2022/04/19 01:59:25;;;;;;;27.97;12.57;;;6.60;99.90;;;;;;5010457;28;20225;-86
2022/04/19 02:01:51;;;;;;;30.07;13.20;;;7.00;99.90;;;;;;5008296;28;20545;-85
2022/04/19 02:04:18;;;;;;;32.87;14.63;;;6.90;99.90;;;;;;5007564;28;20178;-86
2022/04/19 02:06:44;;;;;;;33.07;13.47;;;6.60;99.90;;;;;;5010809;28;20284;-86
2022/04/19 02:09:10;;;;;;;37.43;15.30;;;6.40;99.90;;;;;;5006745;28;20207;-85
2022/04/19 02:11:37;;;;;;;30.60;14.27;;;6.60;99.90;;;;;;5007632;28;20182;-85
2022/04/19 02:14:04;;;;;;;32.37;15.50;;;6.50;99.90;;;;;;5009016;28;20593;-85
2022/04/19 02:16:31;;;;;;;35.67;14.57;;;6.30;99.90;;;;;;5008075;28;20680;-85
2022/04/19 02:18:57;;;;;;;30.53;13.67;;;6.40;99.90;;;;;;5005906;28;20179;-85
2022/04/19 02:21:23;;;;;;;30.03;13.57;;;6.50;99.90;;;;;;5007123;28;20258;-85
2022/04/19 02:23:49;;;;;;;32.70;13.67;;;6.40;99.90;;;;;;5006683;28;20174;-85
2022/04/19 02:26:15;;;;;;;38.00;14.47;;;6.40;99.90;;;;;;5005134;28;20209;-85
2022/04/19 02:28:45;;;;;;;34.50;14.27;;;6.40;99.90;;;;;;5005338;28;20208;-85
2022/04/19 02:31:11;;;;;;;30.00;13.83;;;6.40;99.90;;;;;;5006016;28;20549;-86
2022/04/19 02:33:36;;;;;;;31.23;13.90;;;6.40;99.90;;;;;;5007475;28;20170;-86
2022/04/19 02:36:03;;;;;;;39.20;14.77;;;6.30;99.90;;;;;;5007176;28;20208;-86
2022/04/19 02:38:29;;;;;;;31.63;13.80;;;6.30;99.90;;;;;;5009845;28;20206;-85
2022/04/19 02:40:55;;;;;;;29.37;13.37;;;6.40;99.90;;;;;;5007029;28;20625;-86
2022/04/19 02:43:20;;;;;;;37.03;14.70;;;6.30;99.90;;;;;;5004894;28;20187;-85
2022/04/19 02:45:46;;;;;;;34.10;13.50;;;6.20;99.90;;;;;;5004829;28;20278;-85
2022/04/19 02:48:11;;;;;;;33.27;13.60;;;6.20;99.90;;;;;;5005380;28;20180;-85
2022/04/19 02:50:45;;;;;;;25.50;12.53;;;6.20;99.90;;;;;;5003938;28;20180;-86
2022/04/19 02:53:11;;;;;;;36.27;13.60;;;6.20;99.90;;;;;;5005508;28;20170;-85
2022/04/19 02:55:37;;;;;;;33.90;14.23;;;6.10;99.90;;;;;;5006526;28;20212;-85
2022/04/19 02:58:03;;;;;;;31.70;13.83;;;6.10;99.90;;;;;;5005196;28;20225;-86
2022/04/19 03:00:29;;;;;;;31.93;14.20;;;6.10;99.90;;;;;;5005059;28;20596;-86
2022/04/19 03:02:55;;;;;;;32.67;13.93;;;6.20;99.90;;;;;;5006078;28;20184;-85
2022/04/19 03:05:21;;;;;;;31.77;15.13;;;5.90;99.90;;;;;;5003881;28;20660;-85
2022/04/19 03:07:48;;;;;;;32.60;14.10;;;5.80;99.90;;;;;;5006463;28;20187;-86
2022/04/19 03:10:15;;;;;;;32.83;14.10;;;5.80;99.90;;;;;;5005695;28;20213;-85
2022/04/19 03:12:42;;;;;;;30.03;14.00;;;5.80;99.90;;;;;;5001745;28;20245;-85
2022/04/19 03:15:10;;;;;;;30.80;13.47;;;5.90;99.90;;;;;;5004402;28;20188;-86
2022/04/19 03:17:35;;;;;;;31.17;14.40;;;5.90;99.90;;;;;;5004430;28;20194;-86
2022/04/19 03:20:01;;;;;;;29.10;13.63;;;5.80;99.90;;;;;;5006167;28;20534;-85
2022/04/19 03:27:41;;;;;;;28.13;13.03;;;5.90;99.90;;;;;;4996111;28;20209;-86
2022/04/19 03:27:58;;;;;;;27.40;13.23;;;5.80;99.90;;;;;;5028089;28;20272;-86
2022/04/19 03:30:24;;;;;;;27.40;13.50;;;5.80;99.90;;;;;;4996037;28;20179;-86
2022/04/19 03:32:52;;;;;;;28.73;13.87;;;5.70;99.90;;;;;;4995684;28;20174;-86
2022/04/19 03:35:19;;;;;;;31.43;13.83;;;5.60;99.90;;;;;;4998568;28;20219;-86
2022/04/19 03:37:44;;;;;;;26.63;13.07;;;5.60;99.90;;;;;;5012591;28;20186;-86
2022/04/19 03:40:10;;;;;;;27.70;13.57;;;5.70;99.90;;;;;;5028458;28;20170;-86
2022/04/19 03:42:36;;;;;;;26.93;12.73;;;5.80;99.90;;;;;;5011650;28;20632;-86
2022/04/19 03:45:02;;;;;;;26.37;12.60;;;5.70;99.90;;;;;;5006002;28;20545;-85
2022/04/19 03:47:28;;;;;;;34.53;14.43;;;5.60;99.90;;;;;;5004592;28;20219;-86
2022/04/19 03:49:53;;;;;;;29.20;13.60;;;5.60;99.90;;;;;;5006661;28;20179;-86
2022/04/19 03:52:19;;;;;;;28.73;13.53;;;5.60;99.90;;;;;;5003405;28;20174;-86
2022/04/19 03:54:44;;;;;;;28.90;13.13;;;5.70;99.90;;;;;;4995589;28;20206;-86
2022/04/19 03:57:11;;;;;;;33.20;13.97;;;5.80;99.90;;;;;;5003230;28;20233;-86
2022/04/19 03:59:38;;;;;;;32.20;13.07;;;5.90;99.90;;;;;;4995291;28;20289;-86
2022/04/19 04:02:05;;;;;;;27.70;13.50;;;5.90;99.90;;;;;;4995403;28;20171;-86
2022/04/19 04:04:31;;;;;;;29.07;13.90;;;5.80;99.90;;;;;;4995478;28;20175;-86
2022/04/19 04:07:01;;;;;;;34.13;13.50;;;5.70;99.90;;;;;;4995556;28;20730;-86
2022/04/19 04:09:36;;;;;;;32.63;14.07;;;5.70;99.90;;;;;;4995718;28;20181;-86
2022/04/19 04:12:04;;;;;;;28.53;13.20;;;5.70;99.90;;;;;;4995632;28;20177;-87
2022/04/19 04:14:30;;;;;;;27.43;12.87;;;5.60;99.90;;;;;;4995989;28;20177;-86
2022/04/19 04:16:55;;;;;;;27.27;12.90;;;5.70;99.90;;;;;;5003904;28;20565;-86
2022/04/19 04:19:21;;;;;;;26.13;12.87;;;5.70;99.90;;;;;;5015694;28;20177;-86
2022/04/19 04:21:47;;;;;;;26.23;13.07;;;5.60;99.90;;;;;;5024713;28;20197;-87
2022/04/19 04:24:12;;;;;;;29.43;12.50;;;5.60;99.90;;;;;;5010896;28;20167;-86
2022/04/19 04:26:38;;;;;;;29.07;12.27;;;5.50;99.90;;;;;;5003804;28;20198;-87
2022/04/19 04:29:04;;;;;;;30.00;13.20;;;5.60;99.90;;;;;;5007594;28;20183;-86
2022/04/19 04:31:29;;;;;;;29.50;12.70;;;5.50;99.90;;;;;;5015173;28;20179;-86
2022/04/19 04:33:55;;;;;;;30.43;12.73;;;5.60;99.90;;;;;;5018306;28;20182;-86
2022/04/19 04:36:21;;;;;;;31.30;13.17;;;5.70;99.90;;;;;;5015924;28;20214;-86
2022/04/19 04:38:47;;;;;;;28.97;12.47;;;5.70;99.90;;;;;;5000910;28;20181;-84
2022/04/19 04:41:12;;;;;;;30.77;12.70;;;5.70;99.90;;;;;;5010749;28;20175;-83
2022/04/19 04:43:39;;;;;;;29.50;13.07;;;5.60;99.90;;;;;;5008039;28;20178;-84
2022/04/19 04:51:35;;;;;;;28.43;12.63;;;5.70;99.90;;;;;;5026468;28;20603;-84
2022/04/19 04:54:00;;;;;;;24.03;11.97;;;5.70;99.90;;;;;;5010886;28;20181;-84
2022/04/19 04:56:26;;;;;;;32.10;12.70;;;5.80;99.90;;;;;;5006378;28;20207;-84
2022/04/19 04:58:52;;;;;;;28.23;12.70;;;5.60;99.90;;;;;;5012555;28;20183;-83
2022/04/19 05:01:17;;;;;;;29.20;12.37;;;5.60;99.90;;;;;;5006609;28;20206;-84
2022/04/19 05:03:43;;;;;;;24.03;11.53;;;5.50;99.90;;;;;;4999925;28;20182;-84
2022/04/19 05:06:09;;;;;;;27.37;12.30;;;5.70;99.90;;;;;;4998733;28;20204;-84
2022/04/19 05:08:34;;;;;;;26.83;11.67;;;5.80;99.90;;;;;;4997695;28;20183;-84
2022/04/19 05:11:00;;;;;;;29.23;12.73;;;5.90;99.90;;;;;;4998406;28;20166;-84
2022/04/19 05:13:25;;;;;;;28.60;12.57;;;5.90;99.90;;;;;;4998557;28;20193;-84
2022/04/19 05:15:51;;;;;;;26.77;11.73;;;6.00;99.90;;;;;;4998080;28;20279;-84
2022/04/19 05:18:17;;;;;;;31.10;13.10;;;5.90;99.90;;;;;;4998537;28;20182;-84
2022/04/19 05:20:43;;;;;;;33.53;12.27;;;6.10;99.90;;;;;;4998662;28;20180;-84
2022/04/19 05:23:09;;;;;;;30.53;12.83;;;6.00;99.90;;;;;;4998859;28;20273;-84
2022/04/19 05:25:35;;;;;;;33.63;12.83;;;5.80;99.90;;;;;;4999107;28;20609;-84
2022/04/19 05:28:00;;;;;;;31.13;12.83;;;6.10;99.90;;;;;;4999768;28;20554;-84
2022/04/19 05:30:26;;;;;;;30.93;12.90;;;6.30;99.90;;;;;;5001861;28;20186;-84
2022/04/19 05:32:52;;;;;;;30.23;12.70;;;6.40;99.90;;;;;;5001890;28;20197;-84
2022/04/19 05:35:18;;;;;;;29.97;12.27;;;6.80;99.90;;;;;;5001939;28;20183;-84
2022/04/19 05:37:45;;;;;;;38.97;13.60;;;7.10;99.90;;;;;;5002053;28;20244;-84
2022/04/19 05:40:11;;;;;;;32.03;12.90;;;7.10;99.90;;;;;;5001803;28;20178;-84
2022/04/19 05:42:36;;;;;;;33.63;13.40;;;7.10;99.90;;;;;;5001961;28;20181;-84
2022/04/19 05:45:03;;;;;;;28.80;12.07;;;7.40;99.90;;;;;;5001748;28;20723;-84
2022/04/19 05:47:29;;;;;;;30.07;12.57;;;7.90;99.90;;;;;;5002173;28;20202;-84
2022/04/19 05:49:54;;;;;;;29.93;12.73;;;8.20;99.90;;;;;;5004252;28;20189;-84
2022/04/19 05:52:20;;;;;;;24.87;12.57;;;8.10;99.90;;;;;;5004984;28;20201;-85
2022/04/19 05:54:45;;;;;;;26.97;12.43;;;8.40;99.90;;;;;;5005412;28;20201;-85
2022/04/19 05:57:11;;;;;;;27.93;11.73;;;8.60;99.90;;;;;;5006520;28;20212;-85
2022/04/19 05:59:37;;;;;;;25.97;12.20;;;8.70;99.90;;;;;;5004901;28;20188;-85
2022/04/19 06:04:54;;;;;;;24.23;11.53;;;9.10;99.90;;;;;;5023799;28;20183;-85
2022/04/19 06:07:20;;;;;;;18.83;10.57;;;9.40;99.90;;;;;;5006006;28;20195;-85
2022/04/19 06:09:46;;;;;;;25.73;10.67;;;10.10;99.90;;;;;;5006125;28;20205;-85
2022/04/19 06:12:12;;;;;;;19.47;9.37;;;10.80;99.90;;;;;;5005443;28;20182;-85
2022/04/19 06:14:38;;;;;;;22.80;9.53;;;10.90;98.70;;;;;;5004436;28;20198;-85
2022/04/19 06:17:04;;;;;;;21.67;9.17;;;10.80;97.90;;;;;;5004048;28;20215;-85
2022/04/19 06:19:30;;;;;;;23.87;9.80;;;11.30;96.50;;;;;;5004225;28;20179;-85
2022/04/19 06:21:57;;;;;;;21.83;8.60;;;11.20;97.50;;;;;;5004843;28;20657;-85
2022/04/19 06:24:22;;;;;;;21.50;9.40;;;11.40;96.50;;;;;;5004823;28;20171;-85
2022/04/19 06:26:48;;;;;;;21.37;9.10;;;12.20;96.10;;;;;;5005365;28;20206;-85
2022/04/19 06:29:14;;;;;;;15.43;8.13;;;12.50;94.20;;;;;;5004248;28;20269;-85
2022/04/19 06:31:40;;;;;;;18.47;8.97;;;12.40;93.20;;;;;;5005223;28;20183;-85
2022/04/19 06:34:07;;;;;;;24.60;9.03;;;12.40;93.50;;;;;;5004210;28;20178;-86
2022/04/19 06:36:33;;;;;;;20.07;8.37;;;12.20;92.20;;;;;;5004052;28;20702;-86
2022/04/19 06:38:59;;;;;;;19.67;8.70;;;12.60;92.60;;;;;;5003872;28;20198;-85
2022/04/19 06:41:25;;;;;;;21.00;8.33;;;12.70;92.90;;;;;;5003773;28;20182;-85
2022/04/19 06:43:50;;;;;;;15.70;8.63;;;12.60;91.70;;;;;;5004267;28;20535;-85
2022/04/19 06:46:17;;;;;;;17.10;8.63;;;12.70;92.10;;;;;;5003440;28;20222;-86
2022/04/19 06:48:43;;;;;;;18.60;8.30;;;12.80;92.80;;;;;;5003959;28;20250;-85
2022/04/19 06:51:09;;;;;;;18.83;8.00;;;13.30;91.40;;;;;;4998937;28;20182;-85
2022/04/19 06:53:36;;;;;;;14.90;7.93;;;14.00;90.40;;;;;;5000851;28;20189;-85
2022/04/19 06:56:04;;;;;;;15.70;8.07;;;13.80;90.70;;;;;;4996239;28;20210;-85
2022/04/19 06:58:30;;;;;;;15.80;8.32;;;13.60;91.00;;;;;;4997027;28;20175;-85
2022/04/19 07:00:56;;;;;;;13.18;7.78;;;14.20;88.50;;;;;;4996026;28;20191;-85
2022/04/19 07:03:24;;;;;;;16.52;7.85;;;14.70;88.40;;;;;;4996702;28;20175;-85
2022/04/19 07:05:50;;;;;;;13.40;7.25;;;15.30;87.30;;;;;;4996240;28;20241;-85
2022/04/19 07:08:15;;;;;;;12.52;7.45;;;15.60;83.50;;;;;;4996553;28;20580;-85
2022/04/19 07:10:42;;;;;;;10.95;7.07;;;15.70;83.70;;;;;;4996316;28;20182;-85
2022/04/19 07:13:09;;;;;;;13.93;7.05;;;15.90;83.00;;;;;;4995856;28;20919;-86
2022/04/19 07:15:35;;;;;;;10.02;6.43;;;15.20;82.00;;;;;;4995187;28;20214;-85
2022/04/19 07:18:01;;;;;;;11.73;6.97;;;16.30;80.00;;;;;;4995709;28;20174;-85
2022/04/19 07:28:39;;;;;;;16.27;6.68;;;16.30;78.30;;;;;;5013406;28;20221;-85
2022/04/19 07:31:05;;;;;;;12.13;7.20;;;16.70;79.40;;;;;;4995230;28;20183;-84
2022/04/19 07:33:31;;;;;;;15.05;7.22;;;16.60;77.40;;;;;;4995525;28;20182;-84
2022/04/19 07:35:57;;;;;;;14.27;6.78;;;16.50;77.30;;;;;;4996516;28;20206;-85
2022/04/19 07:38:23;;;;;;;11.85;6.82;;;16.20;77.20;;;;;;4995293;28;20201;-84
2022/04/19 07:40:49;;;;;;;13.65;6.75;;;16.90;74.40;;;;;;4995191;28;20611;-84
2022/04/19 07:43:15;;;;;;;12.40;6.78;;;17.10;74.90;;;;;;4995029;28;20175;-85
2022/04/19 07:45:41;;;;;;;11.55;6.00;;;17.10;75.00;;;;;;5012690;28;20640;-85
2022/04/19 07:48:07;;;;;;;14.90;6.72;;;17.00;76.50;;;;;;4995113;28;20225;-85
2022/04/19 07:50:34;;;;;;;11.75;6.07;;;17.20;78.10;;;;;;4995172;28;20182;-85
2022/04/19 07:53:00;;;;;;;10.80;5.75;;;17.20;74.70;;;;;;4994591;28;20170;-85
2022/04/19 07:55:27;;;;;;;10.85;6.18;;;17.70;74.60;;;;;;4994661;28;20220;-85
2022/04/19 07:57:53;;;;;;;12.45;5.63;;;17.90;72.80;;;;;;4994883;28;20171;-84
2022/04/19 08:00:19;;;;;;;10.80;5.63;;;17.40;71.70;;;;;;4997400;28;20201;-85
2022/04/19 08:02:46;;;;;;;10.65;5.65;;;17.30;74.00;;;;;;4996620;28;20179;-85
2022/04/19 08:05:12;;;;;;;12.32;6.15;;;17.00;74.30;;;;;;4995527;28;20171;-85
2022/04/19 08:07:37;;;;;;;12.35;5.63;;;17.30;75.20;;;;;;4995049;28;20245;-85
2022/04/19 08:10:04;;;;;;;17.30;6.32;;;17.90;73.00;;;;;;4995972;28;20183;-85
2022/04/19 08:12:31;;;;;;;10.55;6.05;;;18.20;71.90;;;;;;4994911;28;20544;-84
2022/04/19 08:14:57;;;;;;;14.15;6.10;;;17.80;72.50;;;;;;4994572;28;20575;-85
2022/04/19 08:17:22;;;;;;;13.18;6.35;;;18.10;71.30;;;;;;4996239;28;20217;-85
2022/04/19 08:19:48;;;;;;;9.98;6.03;;;17.90;74.10;;;;;;4995821;28;20577;-86
2022/04/19 08:22:14;;;;;;;13.00;6.53;;;18.10;74.40;;;;;;4995984;28;20171;-86
2022/04/19 08:24:41;;;;;;;12.02;6.75;;;18.00;73.20;;;;;;4996133;28;20167;-86
2022/04/19 08:27:06;;;;;;;14.30;6.30;;;18.00;71.40;;;;;;4996189;28;20210;-85
2022/04/19 08:29:32;;;;;;;10.40;5.90;;;18.60;70.20;;;;;;4997228;28;20456;-85
2022/04/19 08:31:57;;;;;;;11.57;6.45;;;18.00;69.60;;;;;;4996548;28;20175;-86
2022/04/19 08:34:23;;;;;;;8.32;5.28;;;18.40;72.10;;;;;;4998043;28;20631;-84
2022/04/19 08:36:49;;;;;;;10.90;6.25;;;17.80;72.10;;;;;;4995737;28;20203;-86
2022/04/19 08:39:14;;;;;;;13.23;6.32;;;18.30;74.10;;;;;;4995857;28;20237;-85
2022/04/19 08:41:41;;;;;;;13.00;6.03;;;18.50;70.90;;;;;;4995867;28;20225;-86
2022/04/19 08:44:07;;;;;;;10.45;5.30;;;18.80;71.80;;;;;;4997777;28;20175;-85
2022/04/19 08:46:35;;;;;;;7.72;4.72;;;18.60;71.00;;;;;;4996756;28;20195;-85
2022/04/19 08:49:05;;;;;;;7.55;4.10;;;17.70;70.00;;;;;;4997715;28;20229;-85
2022/04/19 08:51:34;;;;;;;10.05;4.35;;;17.50;68.50;;;;;;4998178;28;20174;-86
2022/04/19 08:59:32;;;;;;;7.38;3.97;;;17.40;72.90;;;;;;5018007;28;20185;-85
2022/04/19 09:01:59;;;;;;;9.38;4.78;;;17.10;70.90;;;;;;4999535;28;20277;-86
2022/04/19 09:04:26;;;;;;;7.90;3.97;;;16.70;72.60;;;;;;5000270;28;20181;-84
2022/04/19 09:06:53;;;;;;;8.13;4.07;;;16.70;71.90;;;;;;5000128;28;20198;-85
2022/04/19 09:09:34;;;;;;;9.03;4.60;;;16.20;74.60;;;;;;5000470;28;20179;-84
2022/04/19 09:12:26;;;;;;;15.63;5.10;;;16.00;73.90;;;;;;5000262;28;20178;-86
2022/04/19 09:14:55;;;;;;;9.80;4.87;;;16.80;76.00;;;;;;4994904;28;20264;-86
2022/04/19 09:17:33;;;;;;;10.20;4.67;;;16.80;72.80;;;;;;5001029;28;20230;-85
2022/04/19 09:20:19;;;;;;;10.27;4.63;;;16.90;73.00;;;;;;5003631;28;20174;-85
2022/04/19 09:22:59;;;;;;;9.27;4.73;;;17.70;71.60;;;;;;5003763;28;20178;-86
2022/04/19 09:25:26;;;;;;;8.60;4.67;;;17.10;72.90;;;;;;5003841;28;20178;-85
2022/04/19 09:27:54;;;;;;;10.97;4.33;;;17.10;73.70;;;;;;5005082;28;20177;-82
2022/04/19 09:30:20;;;;;;;7.00;4.10;;;17.40;71.20;;;;;;5004187;28;20199;-85
2022/04/19 09:33:08;;;;;;;5.67;4.10;;;17.40;71.70;;;;;;5004205;28;20167;-84
2022/04/19 09:35:36;;;;;;;12.83;5.03;;;17.60;76.00;;;;;;5004843;28;20246;-85
2022/04/19 09:38:03;;;;;;;12.57;4.50;;;18.20;72.90;;;;;;5004332;28;20236;-85
2022/04/19 09:40:34;;;;;;;8.53;3.90;;;17.60;72.40;;;;;;5005151;28;20174;-86
2022/04/19 09:43:30;;;;;;;6.27;4.23;;;17.20;73.40;;;;;;5004747;28;20171;-85
2022/04/19 09:46:03;;;;;;;6.53;4.25;;;17.20;72.70;;;;;;4984864;28;20582;-86
2022/04/19 09:48:31;;;;;;;6.18;4.28;;;17.70;73.00;;;;;;5005671;28;20186;-85
2022/04/19 09:51:02;;;;;;;11.75;4.88;;;17.40;72.90;;;;;;5005458;28;20179;-85
2022/04/19 09:53:30;;;;;;;21.13;4.50;;;17.50;73.40;;;;;;5005753;28;20271;-85
2022/04/19 09:55:57;;;;;;;9.93;4.65;;;17.80;73.60;;;;;;5004641;28;20221;-85
2022/04/19 09:58:24;;;;;;;6.50;4.32;;;17.40;70.90;;;;;;5003991;28;20182;-84
2022/04/19 10:00:51;;;;;;;6.13;4.37;;;17.80;74.20;;;;;;4998766;28;20218;-84
2022/04/19 10:08:51;;;;;;;6.72;4.75;;;17.30;73.00;;;;;;5015483;28;20208;-85
2022/04/19 10:11:18;;;;;;;9.80;5.00;;;17.60;73.00;;;;;;4997811;28;20183;-85
2022/04/19 10:13:45;;;;;;;7.90;4.80;;;17.90;73.20;;;;;;4998802;28;20202;-85
2022/04/19 10:16:12;;;;;;;10.27;4.68;;;17.50;71.80;;;;;;4999515;28;20297;-85
2022/04/19 10:18:39;;;;;;;7.88;4.70;;;18.10;74.00;;;;;;5001301;28;20201;-85
2022/04/19 10:21:09;;;;;;;5.03;4.28;;;18.80;73.10;;;;;;5000010;28;20171;-85
2022/04/19 10:23:37;;;;;;;5.43;4.30;;;18.90;74.10;;;;;;5000559;28;20170;-85
2022/04/19 10:26:13;;;;;;;9.43;4.00;;;19.90;70.00;;;;;;5000022;28;20687;-83
2022/04/19 10:28:39;;;;;;;6.40;3.80;;;19.70;68.10;;;;;;5000396;28;20171;-86
2022/04/19 10:31:05;;;;;;;6.10;3.70;;;19.30;66.20;;;;;;4999437;28;20182;-85
2022/04/19 10:33:53;;;;;;;9.80;3.25;;;20.20;69.40;;;;;;5000236;28;20194;-84
2022/04/19 10:36:38;;;;;;;11.10;3.35;;;19.10;70.90;;;;;;5002624;28;20206;-85
2022/04/19 10:39:13;;;;;;;5.47;3.45;;;18.70;67.70;;;;;;5001215;28;20170;-87
2022/04/19 10:41:55;;;;;;;5.70;3.75;;;18.20;69.70;;;;;;5000073;28;20179;-85
2022/04/19 10:44:52;;;;;;;6.82;3.80;;;17.60;71.20;;;;;;4998474;28;20189;-85
2022/04/19 10:47:20;;;;;;;3.53;3.22;;;18.30;68.10;;;;;;4997040;28;20210;-85
2022/04/19 10:49:46;;;;;;;3.13;2.83;;;18.10;70.70;;;;;;4998101;28;20261;-85
2022/04/19 10:52:37;;;;;;;5.35;2.97;;;19.00;65.70;;;;;;4999303;28;20170;-85
2022/04/19 10:55:32;;;;;;;6.00;2.90;;;18.30;68.30;;;;;;4997938;28;20178;-85
2022/04/19 10:58:09;;;;;;;3.63;3.20;;;18.60;68.70;;;;;;4992745;28;20198;-84
2022/04/19 11:00:35;;;;;;;4.65;2.75;;;18.50;71.10;;;;;;4997912;28;20186;-84
2022/04/19 11:03:01;;;;;;;4.68;2.60;;;19.30;66.60;;;;;;4997317;28;20240;-84
2022/04/19 11:05:46;;;;;;;3.20;2.63;;;18.90;66.70;;;;;;4997402;28;20598;-85
2022/04/19 11:08:27;;;;;;;3.88;2.75;;;18.70;64.90;;;;;;4998148;28;20219;-84
2022/04/19 11:10:55;;;;;;;3.40;2.75;;;19.10;63.40;;;;;;4997457;28;20178;-84
2022/04/19 11:13:28;;;;;;;2.60;2.40;;;19.50;63.30;;;;;;4997764;28;20322;-85
2022/04/19 11:16:00;;;;;;;3.28;2.38;;;19.60;63.50;;;;;;4996663;28;20229;-84
2022/04/19 11:18:26;;;;;;;6.40;2.95;;;18.80;66.80;;;;;;4996838;28;20187;-84
2022/04/19 11:20:57;;;;;;;3.33;2.50;;;19.70;65.50;;;;;;4996931;28;20175;-85
2022/04/19 11:23:24;;;;;;;4.53;3.15;;;18.80;65.30;;;;;;4996762;28;20195;-84
2022/04/19 11:25:51;;;;;;;5.57;2.97;;;18.20;67.10;;;;;;4996366;28;20194;-84
2022/04/19 11:28:30;;;;;;;5.07;2.63;;;18.40;66.30;;;;;;4996568;28;20735;-85
2022/04/19 11:30:56;;;;;;;5.20;2.50;;;18.60;67.00;;;;;;4995861;28;20655;-85
2022/04/19 11:33:34;;;;;;;2.70;2.50;;;17.90;67.90;;;;;;4996435;28;20186;-84
2022/04/19 11:36:10;;;;;;;4.82;2.35;;;18.60;67.20;;;;;;4997297;28;20212;-85
2022/04/19 11:38:46;;;;;;;9.27;1.90;;;18.80;64.80;;;;;;4997309;28;20174;-84
2022/04/19 11:46:45;;;;;;;1.25;1.23;;;18.30;64.20;;;;;;5014104;28;20205;-85
2022/04/19 11:49:36;;;;;;;1.20;1.20;;;18.30;60.80;;;;;;4996090;28;20184;-84
2022/04/19 11:52:08;;;;;;;3.63;1.35;;;18.70;62.50;;;;;;4996661;28;20225;-84
2022/04/19 11:54:35;;;;;;;1.40;1.40;;;20.10;59.00;;;;;;4997069;28;20209;-84
2022/04/19 11:57:03;;;;;;;1.35;1.25;;;21.20;58.60;;;;;;4996658;28;20682;-85
2022/04/19 11:59:34;;;;;;;1.02;1.00;;;21.20;59.10;;;;;;4996578;28;20201;-84
2022/04/19 12:02:01;;;;;;;1.90;1.60;;;19.90;58.90;;;;;;4996018;28;20648;-84
2022/04/19 12:04:27;;;;;;;1.85;1.45;;;19.20;59.00;;;;;;4995311;28;20210;-84
2022/04/19 12:06:57;;;;;;;6.72;1.30;;;19.00;60.30;;;;;;4997441;28;20199;-85
2022/04/19 12:09:23;;;;;;;2.22;0.90;;;18.40;59.70;;;;;;4996428;28;20232;-83
2022/04/19 12:11:50;;;;;;;3.50;1.20;;;18.50;60.90;;;;;;4995476;28;20265;-84
2022/04/19 12:14:32;;;;;;;1.00;1.00;;;17.40;60.70;;;;;;4995577;28;20179;-84
2022/04/19 12:17:06;;;;;;;1.10;1.10;;;17.70;62.60;;;;;;4994492;28;20210;-85
2022/04/19 12:19:39;;;;;;;0.75;0.75;;;18.10;58.40;;;;;;4994214;28;20170;-84
2022/04/19 12:22:24;;;;;;;1.30;1.20;;;17.70;58.70;;;;;;4994641;28;20171;-84
2022/04/19 12:24:58;;;;;;;3.13;1.23;;;17.70;62.00;;;;;;4994981;28;20741;-83
2022/04/19 12:27:50;;;;;;;1.10;1.10;;;18.90;60.20;;;;;;4994887;28;20285;-84
2022/04/19 12:30:15;;;;;;;3.25;1.00;;;18.10;59.10;;;;;;5012633;28;20202;-84
2022/04/19 12:32:51;;;;;;;1.30;1.30;;;17.50;60.70;;;;;;4995009;28;20299;-82
2022/04/19 12:35:21;;;;;;;1.40;1.30;;;17.80;59.70;;;;;;4994216;28;20178;-84
2022/04/19 12:38:18;;;;;;;1.33;1.30;;;17.90;60.90;;;;;;4994870;28;20206;-85
2022/04/19 12:40:45;;;;;;;1.70;1.30;;;18.20;60.60;;;;;;4994479;28;20209;-83
2022/04/19 12:43:14;;;;;;;1.50;1.40;;;17.70;62.90;;;;;;4994389;28;20579;-84
2022/04/19 12:45:41;;;;;;;1.20;1.20;;;17.60;58.90;;;;;;4994397;28;20202;-84
2022/04/19 12:48:17;;;;;;;1.00;1.00;;;17.10;61.20;;;;;;4994384;28;20180;-85
2022/04/19 12:50:42;;;;;;;1.30;1.30;;;17.50;60.90;;;;;;4997371;28;20163;-85
2022/04/19 12:53:24;;;;;;;1.20;1.10;;;17.40;60.00;;;;;;5012487;28;20248;-84
2022/04/19 12:55:50;;;;;;;2.77;1.47;;;16.90;60.60;;;;;;5010938;28;20713;-85
2022/04/19 12:58:16;;;;;;;1.50;1.23;;;16.80;60.70;;;;;;5005268;28;20256;-85
2022/04/19 13:00:41;;;;;;;4.23;1.20;;;17.20;63.30;;;;;;5005785;28;20217;-83
2022/04/19 13:03:07;;;;;;;4.60;1.50;;;17.20;61.80;;;;;;5007763;28;20170;-85
2022/04/19 13:13:45;;;;;;;2.10;1.60;;;17.10;60.70;;;;;;5020805;28;20198;-83
2022/04/19 13:16:10;;;;;;;2.73;1.57;;;17.00;59.40;;;;;;5008290;28;20675;-82
2022/04/19 13:18:36;;;;;;;3.87;1.67;;;17.20;60.10;;;;;;5009699;28;20177;-81
2022/04/19 13:21:03;;;;;;;4.87;1.90;;;16.80;58.90;;;;;;5006317;28;20775;-83
2022/04/19 13:23:29;;;;;;;3.70;1.83;;;16.50;58.20;;;;;;5005770;28;20170;-82
2022/04/19 13:25:55;;;;;;;2.33;2.10;;;16.70;59.10;;;;;;5005362;28;20217;-82
2022/04/19 13:28:25;;;;;;;2.07;1.90;;;16.80;61.00;;;;;;5006800;28;20181;-82
2022/04/19 13:30:51;;;;;;;4.03;2.20;;;16.40;59.10;;;;;;5006127;28;20721;-83
2022/04/19 13:33:17;;;;;;;4.53;2.50;;;16.50;59.30;;;;;;5016739;28;20197;-82
2022/04/19 13:35:43;;;;;;;5.93;2.17;;;16.60;57.70;;;;;;5015584;28;20201;-80